Terminal Aerodrome Forecast
Issued by NWS

Home | Current Version | Previous Version | Text Only | Print | Product List | Glossary On
Versions: 1 2 3 4 5 6 7 8 9 10 11 12 13 14 15 16 17
000
FTAK31 PAJN 291100
TAFAYA
TAF
PAYA 291120Z 2912/3012 VRB03KT 6SM -RA SCT025 OVC050
     FM291500 08005KT 5SM -RA BKN025 OVC040
     FM292000 12005KT P6SM -RA OVC050
     FM300600 10004KT 5SM -SHRA BKN050
      AMD LTD TO CLD VIS AND WIND 3001/3010=

USA.gov is the U.S. government's official web portal to all federal, state and local government web resources and services.